Portada
METAR-TAF:

METAR-TAF

Aeroports :

Nanning, Xina

latitud: 22-49N, longitud: 108-21E, altitud: 73 m

Observació

L'informe es va fer fa 20 minuts, a les 01:00 UTC
Vent 8 kt del Nord
Temperatura 19°C
Humitat 64%
Pressió 1025 hPa
Visibilitat 10 km o més
sense núvols per sota de 1500 mi sense presència de cumulonimbus.

METAR: ZGNN 140100Z 36004MPS CAVOK 19/12 Q1025 NOSIG

Hora: 09:20 (01:20 UTC)

Pronòstic

L'informe es va fer fa 6 hores i 13 minuts, a les 19:07 UTC
Pronòstic vàlid del 14 a les 00 UTC al 14 a les 24 UTC
Vent 8 kt del Nord
Visibilitat: 7000 m
Cel ennuvolat a una alçada de 3000 ft

TAF: ZGNN 131907Z 1400/1424 01004MPS 7000 BKN030 TX24/1407Z TN17/1422Z

Observacions i pronòstics meteorològics de més de 4000 aeroports (METAR i TAF).

Les estacions disponibles són els punts grocs i vermells al mapa.

Posi el ratolí al punt desitjat per veure el nom de l'estació.

Feu clic per veure les observacions i els pronòstics meteorològics.

Per canviar el mapa: feu clic els botons verds amb una creu de color negre per apropar; al botó verd amb un guió per allunyar la imatge; o en les fletxes verdes per a mapes adjacents.


METAR-TAF: